LFSX 150230Z AUTO 00000KT 8000 OVC032 M02/M04 Q1023 TEMPO 0300 FZFG

ElémentsDécodage
LFSX Station météo située sur l'aérodrome de LUXEUIL Saint-Sauveur
150230Z émis le 15 du mois à 02h30 UTC
AUTO Bulletin édité par un automate
00000KT vent nul
8000 visibilité horizontale de 8000 mètres
OVC032 couverture nuageuse totale (8/8) à 3200 pieds
M02/M04 température -02°C, point de rosée -04°C
 soit une humidité relative de 86%
Q1023 la pression au niveau de la mer (QNH) est de 1023 hPa
TEMPO fluctuation temporaire prévue
0300 visibilité horizontale de 300 mètres
FZFG brouillard se congelant